sensor_id;sensor_type;location;lat;lon;timestamp;P1;P2;P0
79689;PMS5003;69156;55.932;-3.238;2023-04-19T00:01:22;26;25;
79689;PMS5003;69156;55.932;-3.238;2023-04-19T00:03:47;25;23;
79689;PMS5003;69156;55.932;-3.238;2023-04-19T00:06:12;23;22;
79689;PMS5003;69156;55.932;-3.238;2023-04-19T00:08:38;26;26;
79689;PMS5003;69156;55.932;-3.238;2023-04-19T00:11:03;22;22;
79689;PMS5003;69156;55.932;-3.238;2023-04-19T00:13:29;27;26;
79689;PMS5003;69156;55.932;-3.238;2023-04-19T00:15:54;27;26;
79689;PMS5003;69156;55.932;-3.238;2023-04-19T00:18:20;31;30;
79689;PMS5003;69156;55.932;-3.238;2023-04-19T00:20:45;26;26;
79689;PMS5003;69156;55.932;-3.238;2023-04-19T00:23:10;27;26;
79689;PMS5003;69156;55.932;-3.238;2023-04-19T00:25:36;27;26;
79689;PMS5003;69156;55.932;-3.238;2023-04-19T00:28:02;29;28;
79689;PMS5003;69156;55.932;-3.238;2023-04-19T00:30:27;34;29;
79689;PMS5003;69156;55.932;-3.238;2023-04-19T00:32:52;25;24;
79689;PMS5003;69156;55.932;-3.238;2023-04-19T00:35:19;19;19;
79689;PMS5003;69156;55.932;-3.238;2023-04-19T00:37:44;22;22;
79689;PMS5003;69156;55.932;-3.238;2023-04-19T00:40:10;26;26;
79689;PMS5003;69156;55.932;-3.238;2023-04-19T00:42:36;26;25;
79689;PMS5003;69156;55.932;-3.238;2023-04-19T00:45:01;28;26;
79689;PMS5003;69156;55.932;-3.238;2023-04-19T00:47:26;26;25;
79689;PMS5003;69156;55.932;-3.238;2023-04-19T00:49:53;25;23;
79689;PMS5003;69156;55.932;-3.238;2023-04-19T00:52:18;23;23;
79689;PMS5003;69156;55.932;-3.238;2023-04-19T00:54:44;25;22;
79689;PMS5003;69156;55.932;-3.238;2023-04-19T00:57:09;26;25;
79689;PMS5003;69156;55.932;-3.238;2023-04-19T00:59:35;31;28;
79689;PMS5003;69156;55.932;-3.238;2023-04-19T01:02:00;23;23;
79689;PMS5003;69156;55.932;-3.238;2023-04-19T01:04:25;26;26;
79689;PMS5003;69156;55.932;-3.238;2023-04-19T01:06:50;22;22;
79689;PMS5003;69156;55.932;-3.238;2023-04-19T01:09:16;24;22;
79689;PMS5003;69156;55.932;-3.238;2023-04-19T01:11:41;28;28;
79689;PMS5003;69156;55.932;-3.238;2023-04-19T01:14:07;25;24;
79689;PMS5003;69156;55.932;-3.238;2023-04-19T01:16:32;21;20;
79689;PMS5003;69156;55.932;-3.238;2023-04-19T01:18:57;29;26;
79689;PMS5003;69156;55.932;-3.238;2023-04-19T01:21:23;29;28;
79689;PMS5003;69156;55.932;-3.238;2023-04-19T01:23:48;25;25;
79689;PMS5003;69156;55.932;-3.238;2023-04-19T01:26:14;28;26;
79689;PMS5003;69156;55.932;-3.238;2023-04-19T01:28:39;22;22;
79689;PMS5003;69156;55.932;-3.238;2023-04-19T01:31:04;24;24;
79689;PMS5003;69156;55.932;-3.238;2023-04-19T01:33:30;27;26;
79689;PMS5003;69156;55.932;-3.238;2023-04-19T01:35:56;25;25;
79689;PMS5003;69156;55.932;-3.238;2023-04-19T01:38:21;26;25;
79689;PMS5003;69156;55.932;-3.238;2023-04-19T01:40:46;27;26;
79689;PMS5003;69156;55.932;-3.238;2023-04-19T01:43:12;27;26;
79689;PMS5003;69156;55.932;-3.238;2023-04-19T01:45:37;25;25;
79689;PMS5003;69156;55.932;-3.238;2023-04-19T01:48:03;22;22;
79689;PMS5003;69156;55.932;-3.238;2023-04-19T01:50:28;24;22;
79689;PMS5003;69156;55.932;-3.238;2023-04-19T01:52:53;24;22;
79689;PMS5003;69156;55.932;-3.238;2023-04-19T01:55:19;27;26;
79689;PMS5003;69156;55.932;-3.238;2023-04-19T01:57:44;27;26;
79689;PMS5003;69156;55.932;-3.238;2023-04-19T02:00:11;26;25;
79689;PMS5003;69156;55.932;-3.238;2023-04-19T02:02:36;22;22;
79689;PMS5003;69156;55.932;-3.238;2023-04-19T02:05:01;26;26;
79689;PMS5003;69156;55.932;-3.238;2023-04-19T02:07:27;26;26;
79689;PMS5003;69156;55.932;-3.238;2023-04-19T02:09:53;24;22;
79689;PMS5003;69156;55.932;-3.238;2023-04-19T02:12:18;23;23;
79689;PMS5003;69156;55.932;-3.238;2023-04-19T02:14:44;22;21;
79689;PMS5003;69156;55.932;-3.238;2023-04-19T02:17:09;22;22;
79689;PMS5003;69156;55.932;-3.238;2023-04-19T02:19:35;26;25;
79689;PMS5003;69156;55.932;-3.238;2023-04-19T02:22:00;25;25;
79689;PMS5003;69156;55.932;-3.238;2023-04-19T02:24:27;21;20;
79689;PMS5003;69156;55.932;-3.238;2023-04-19T02:26:52;24;24;
79689;PMS5003;69156;55.932;-3.238;2023-04-19T02:29:17;26;26;
79689;PMS5003;69156;55.932;-3.238;2023-04-19T02:31:43;25;24;
79689;PMS5003;69156;55.932;-3.238;2023-04-19T02:34:08;27;27;
79689;PMS5003;69156;55.932;-3.238;2023-04-19T02:36:34;27;27;
79689;PMS5003;69156;55.932;-3.238;2023-04-19T02:38:59;28;27;
79689;PMS5003;69156;55.932;-3.238;2023-04-19T02:41:25;30;28;
79689;PMS5003;69156;55.932;-3.238;2023-04-19T02:43:50;29;29;
79689;PMS5003;69156;55.932;-3.238;2023-04-19T02:46:15;29;28;
79689;PMS5003;69156;55.932;-3.238;2023-04-19T02:48:41;24;22;
79689;PMS5003;69156;55.932;-3.238;2023-04-19T02:51:07;26;26;
79689;PMS5003;69156;55.932;-3.238;2023-04-19T02:53:33;28;28;
79689;PMS5003;69156;55.932;-3.238;2023-04-19T02:55:59;22;21;
79689;PMS5003;69156;55.932;-3.238;2023-04-19T02:58:24;20;20;
79689;PMS5003;69156;55.932;-3.238;2023-04-19T03:00:51;23;22;
79689;PMS5003;69156;55.932;-3.238;2023-04-19T03:03:16;22;21;
79689;PMS5003;69156;55.932;-3.238;2023-04-19T03:05:41;24;24;
79689;PMS5003;69156;55.932;-3.238;2023-04-19T03:08:07;23;22;
79689;PMS5003;69156;55.932;-3.238;2023-04-19T03:10:32;24;23;
79689;PMS5003;69156;55.932;-3.238;2023-04-19T03:12:58;24;24;
79689;PMS5003;69156;55.932;-3.238;2023-04-19T03:15:23;24;24;
79689;PMS5003;69156;55.932;-3.238;2023-04-19T03:17:48;28;27;
79689;PMS5003;69156;55.932;-3.238;2023-04-19T03:20:14;27;27;
79689;PMS5003;69156;55.932;-3.238;2023-04-19T03:22:39;27;26;
79689;PMS5003;69156;55.932;-3.238;2023-04-19T03:25:05;27;26;
79689;PMS5003;69156;55.932;-3.238;2023-04-19T03:27:31;23;22;
79689;PMS5003;69156;55.932;-3.238;2023-04-19T03:29:55;23;22;
79689;PMS5003;69156;55.932;-3.238;2023-04-19T03:32:21;26;24;
79689;PMS5003;69156;55.932;-3.238;2023-04-19T03:34:47;26;24;
79689;PMS5003;69156;55.932;-3.238;2023-04-19T03:37:12;26;26;
79689;PMS5003;69156;55.932;-3.238;2023-04-19T03:39:38;26;26;
79689;PMS5003;69156;55.932;-3.238;2023-04-19T03:42:03;27;27;
79689;PMS5003;69156;55.932;-3.238;2023-04-19T03:44:30;27;26;
79689;PMS5003;69156;55.932;-3.238;2023-04-19T03:46:53;25;25;
79689;PMS5003;69156;55.932;-3.238;2023-04-19T03:49:19;28;27;
79689;PMS5003;69156;55.932;-3.238;2023-04-19T03:51:44;22;22;
79689;PMS5003;69156;55.932;-3.238;2023-04-19T03:54:10;25;25;
79689;PMS5003;69156;55.932;-3.238;2023-04-19T03:56:35;25;25;
79689;PMS5003;69156;55.932;-3.238;2023-04-19T03:59:00;23;23;
79689;PMS5003;69156;55.932;-3.238;2023-04-19T04:01:26;22;21;
79689;PMS5003;69156;55.932;-3.238;2023-04-19T04:03:51;22;22;
79689;PMS5003;69156;55.932;-3.238;2023-04-19T04:06:16;27;25;
79689;PMS5003;69156;55.932;-3.238;2023-04-19T04:08:42;20;20;
79689;PMS5003;69156;55.932;-3.238;2023-04-19T04:11:09;30;29;
79689;PMS5003;69156;55.932;-3.238;2023-04-19T04:13:35;25;24;
79689;PMS5003;69156;55.932;-3.238;2023-04-19T04:16:00;18;18;
79689;PMS5003;69156;55.932;-3.238;2023-04-19T04:18:25;24;24;
79689;PMS5003;69156;55.932;-3.238;2023-04-19T04:20:51;22;22;
79689;PMS5003;69156;55.932;-3.238;2023-04-19T04:23:16;26;23;
79689;PMS5003;69156;55.932;-3.238;2023-04-19T04:25:42;23;22;
79689;PMS5003;69156;55.932;-3.238;2023-04-19T04:28:07;23;23;
79689;PMS5003;69156;55.932;-3.238;2023-04-19T04:30:32;23;23;
79689;PMS5003;69156;55.932;-3.238;2023-04-19T04:32:58;23;23;
79689;PMS5003;69156;55.932;-3.238;2023-04-19T04:35:24;20;19;
79689;PMS5003;69156;55.932;-3.238;2023-04-19T04:37:49;22;20;
79689;PMS5003;69156;55.932;-3.238;2023-04-19T04:40:14;26;23;
79689;PMS5003;69156;55.932;-3.238;2023-04-19T04:42:40;21;20;
79689;PMS5003;69156;55.932;-3.238;2023-04-19T04:45:06;24;22;
79689;PMS5003;69156;55.932;-3.238;2023-04-19T04:47:32;27;22;
79689;PMS5003;69156;55.932;-3.238;2023-04-19T04:49:57;17;17;
79689;PMS5003;69156;55.932;-3.238;2023-04-19T04:52:22;19;19;
79689;PMS5003;69156;55.932;-3.238;2023-04-19T04:54:48;18;17;
79689;PMS5003;69156;55.932;-3.238;2023-04-19T04:57:13;23;22;
79689;PMS5003;69156;55.932;-3.238;2023-04-19T04:59:38;20;19;
79689;PMS5003;69156;55.932;-3.238;2023-04-19T05:02:03;22;21;
79689;PMS5003;69156;55.932;-3.238;2023-04-19T05:04:29;21;21;
79689;PMS5003;69156;55.932;-3.238;2023-04-19T05:06:55;21;20;
79689;PMS5003;69156;55.932;-3.238;2023-04-19T05:09:20;18;18;
79689;PMS5003;69156;55.932;-3.238;2023-04-19T05:11:45;20;19;
79689;PMS5003;69156;55.932;-3.238;2023-04-19T05:14:11;21;20;
79689;PMS5003;69156;55.932;-3.238;2023-04-19T05:16:36;21;20;
79689;PMS5003;69156;55.932;-3.238;2023-04-19T05:19:02;21;20;
79689;PMS5003;69156;55.932;-3.238;2023-04-19T05:21:27;18;18;
79689;PMS5003;69156;55.932;-3.238;2023-04-19T05:23:52;19;19;
79689;PMS5003;69156;55.932;-3.238;2023-04-19T05:26:18;19;18;
79689;PMS5003;69156;55.932;-3.238;2023-04-19T05:28:44;19;19;
79689;PMS5003;69156;55.932;-3.238;2023-04-19T05:31:10;17;17;
79689;PMS5003;69156;55.932;-3.238;2023-04-19T05:33:35;17;17;
79689;PMS5003;69156;55.932;-3.238;2023-04-19T05:36:01;17;17;
79689;PMS5003;69156;55.932;-3.238;2023-04-19T05:38:27;19;19;
79689;PMS5003;69156;55.932;-3.238;2023-04-19T05:40:52;19;19;
79689;PMS5003;69156;55.932;-3.238;2023-04-19T05:43:17;18;17;
79689;PMS5003;69156;55.932;-3.238;2023-04-19T05:45:43;17;17;
79689;PMS5003;69156;55.932;-3.238;2023-04-19T05:48:08;18;18;
79689;PMS5003;69156;55.932;-3.238;2023-04-19T05:50:35;17;15;
79689;PMS5003;69156;55.932;-3.238;2023-04-19T05:53:00;20;18;
79689;PMS5003;69156;55.932;-3.238;2023-04-19T05:55:25;19;16;
79689;PMS5003;69156;55.932;-3.238;2023-04-19T05:57:50;14;14;
79689;PMS5003;69156;55.932;-3.238;2023-04-19T06:00:16;24;22;
79689;PMS5003;69156;55.932;-3.238;2023-04-19T06:02:42;25;24;
79689;PMS5003;69156;55.932;-3.238;2023-04-19T06:05:08;20;20;
79689;PMS5003;69156;55.932;-3.238;2023-04-19T06:07:33;22;22;
79689;PMS5003;69156;55.932;-3.238;2023-04-19T06:09:59;23;22;
79689;PMS5003;69156;55.932;-3.238;2023-04-19T06:12:24;23;23;
79689;PMS5003;69156;55.932;-3.238;2023-04-19T06:14:49;15;15;
79689;PMS5003;69156;55.932;-3.238;2023-04-19T06:17:15;20;19;
79689;PMS5003;69156;55.932;-3.238;2023-04-19T06:19:40;21;20;
79689;PMS5003;69156;55.932;-3.238;2023-04-19T06:22:06;14;12;
79689;PMS5003;69156;55.932;-3.238;2023-04-19T06:24:31;14;13;
79689;PMS5003;69156;55.932;-3.238;2023-04-19T06:26:58;12;12;
79689;PMS5003;69156;55.932;-3.238;2023-04-19T06:29:24;12;11;
79689;PMS5003;69156;55.932;-3.238;2023-04-19T06:31:49;12;12;
79689;PMS5003;69156;55.932;-3.238;2023-04-19T06:34:15;12;11;
79689;PMS5003;69156;55.932;-3.238;2023-04-19T06:36:41;16;15;
79689;PMS5003;69156;55.932;-3.238;2023-04-19T06:39:06;12;12;
79689;PMS5003;69156;55.932;-3.238;2023-04-19T06:41:31;12;12;
79689;PMS5003;69156;55.932;-3.238;2023-04-19T06:43:57;11;11;
79689;PMS5003;69156;55.932;-3.238;2023-04-19T06:46:22;13;13;
79689;PMS5003;69156;55.932;-3.238;2023-04-19T06:48:48;13;13;
79689;PMS5003;69156;55.932;-3.238;2023-04-19T06:51:14;12;11;
79689;PMS5003;69156;55.932;-3.238;2023-04-19T06:53:39;14;14;
79689;PMS5003;69156;55.932;-3.238;2023-04-19T06:56:05;14;13;
79689;PMS5003;69156;55.932;-3.238;2023-04-19T06:58:31;11;11;
79689;PMS5003;69156;55.932;-3.238;2023-04-19T07:00:57;11;10;
79689;PMS5003;69156;55.932;-3.238;2023-04-19T07:03:22;13;12;
79689;PMS5003;69156;55.932;-3.238;2023-04-19T07:05:48;9;9;
79689;PMS5003;69156;55.932;-3.238;2023-04-19T07:08:14;11;11;
79689;PMS5003;69156;55.932;-3.238;2023-04-19T07:10:39;10;10;
79689;PMS5003;69156;55.932;-3.238;2023-04-19T07:13:05;13;13;
79689;PMS5003;69156;55.932;-3.238;2023-04-19T07:15:30;12;12;
79689;PMS5003;69156;55.932;-3.238;2023-04-19T07:17:55;10;10;
79689;PMS5003;69156;55.932;-3.238;2023-04-19T07:20:21;10;10;
79689;PMS5003;69156;55.932;-3.238;2023-04-19T07:22:47;11;11;
79689;PMS5003;69156;55.932;-3.238;2023-04-19T07:25:13;9;9;
79689;PMS5003;69156;55.932;-3.238;2023-04-19T07:27:38;9;9;
79689;PMS5003;69156;55.932;-3.238;2023-04-19T07:30:05;14;12;
79689;PMS5003;69156;55.932;-3.238;2023-04-19T07:32:30;12;12;
79689;PMS5003;69156;55.932;-3.238;2023-04-19T07:34:56;13;13;
79689;PMS5003;69156;55.932;-3.238;2023-04-19T07:37:21;9;9;
79689;PMS5003;69156;55.932;-3.238;2023-04-19T07:39:47;10;9;
79689;PMS5003;69156;55.932;-3.238;2023-04-19T07:42:13;12;11;
79689;PMS5003;69156;55.932;-3.238;2023-04-19T07:44:38;10;10;
79689;PMS5003;69156;55.932;-3.238;2023-04-19T07:47:03;10;10;
79689;PMS5003;69156;55.932;-3.238;2023-04-19T07:49:28;7;7;
79689;PMS5003;69156;55.932;-3.238;2023-04-19T07:51:54;11;11;
79689;PMS5003;69156;55.932;-3.238;2023-04-19T07:54:19;15;15;
79689;PMS5003;69156;55.932;-3.238;2023-04-19T07:56:44;12;12;
79689;PMS5003;69156;55.932;-3.238;2023-04-19T07:59:10;12;11;
79689;PMS5003;69156;55.932;-3.238;2023-04-19T08:01:35;11;11;
79689;PMS5003;69156;55.932;-3.238;2023-04-19T08:04:01;10;10;
79689;PMS5003;69156;55.932;-3.238;2023-04-19T08:06:26;12;11;
79689;PMS5003;69156;55.932;-3.238;2023-04-19T08:08:52;10;9;
79689;PMS5003;69156;55.932;-3.238;2023-04-19T08:11:18;12;10;
79689;PMS5003;69156;55.932;-3.238;2023-04-19T08:13:43;11;9;
79689;PMS5003;69156;55.932;-3.238;2023-04-19T08:16:09;11;11;
79689;PMS5003;69156;55.932;-3.238;2023-04-19T08:18:35;12;12;
79689;PMS5003;69156;55.932;-3.238;2023-04-19T08:21:00;15;14;
79689;PMS5003;69156;55.932;-3.238;2023-04-19T08:23:26;12;12;
79689;PMS5003;69156;55.932;-3.238;2023-04-19T08:25:52;11;11;
79689;PMS5003;69156;55.932;-3.238;2023-04-19T08:28:18;10;10;
79689;PMS5003;69156;55.932;-3.238;2023-04-19T08:30:44;13;13;
79689;PMS5003;69156;55.932;-3.238;2023-04-19T08:33:09;9;9;
79689;PMS5003;69156;55.932;-3.238;2023-04-19T08:35:34;10;10;
79689;PMS5003;69156;55.932;-3.238;2023-04-19T08:38:00;9;9;
79689;PMS5003;69156;55.932;-3.238;2023-04-19T08:40:25;10;10;
79689;PMS5003;69156;55.932;-3.238;2023-04-19T08:42:50;13;11;
79689;PMS5003;69156;55.932;-3.238;2023-04-19T08:45:15;8;8;
79689;PMS5003;69156;55.932;-3.238;2023-04-19T08:47:41;13;11;
79689;PMS5003;69156;55.932;-3.238;2023-04-19T08:50:07;9;9;
79689;PMS5003;69156;55.932;-3.238;2023-04-19T08:52:32;9;9;
79689;PMS5003;69156;55.932;-3.238;2023-04-19T08:54:59;15;13;
79689;PMS5003;69156;55.932;-3.238;2023-04-19T08:57:23;10;10;
79689;PMS5003;69156;55.932;-3.238;2023-04-19T08:59:49;10;10;
79689;PMS5003;69156;55.932;-3.238;2023-04-19T09:02:15;9;8;
79689;PMS5003;69156;55.932;-3.238;2023-04-19T09:04:40;8;8;
79689;PMS5003;69156;55.932;-3.238;2023-04-19T09:07:06;15;14;
79689;PMS5003;69156;55.932;-3.238;2023-04-19T09:09:32;9;9;
79689;PMS5003;69156;55.932;-3.238;2023-04-19T09:11:58;9;9;
79689;PMS5003;69156;55.932;-3.238;2023-04-19T09:14:24;9;9;
79689;PMS5003;69156;55.932;-3.238;2023-04-19T09:16:49;9;9;
79689;PMS5003;69156;55.932;-3.238;2023-04-19T09:19:14;8;8;
79689;PMS5003;69156;55.932;-3.238;2023-04-19T09:21:40;7;7;
79689;PMS5003;69156;55.932;-3.238;2023-04-19T09:24:05;9;9;
79689;PMS5003;69156;55.932;-3.238;2023-04-19T09:26:31;8;8;
79689;PMS5003;69156;55.932;-3.238;2023-04-19T09:28:57;9;9;
79689;PMS5003;69156;55.932;-3.238;2023-04-19T09:31:22;9;9;
79689;PMS5003;69156;55.932;-3.238;2023-04-19T09:33:47;9;9;
79689;PMS5003;69156;55.932;-3.238;2023-04-19T09:36:15;9;9;
79689;PMS5003;69156;55.932;-3.238;2023-04-19T09:38:45;11;11;
79689;PMS5003;69156;55.932;-3.238;2023-04-19T09:41:06;7;7;
79689;PMS5003;69156;55.932;-3.238;2023-04-19T09:43:28;11;9;
79689;PMS5003;69156;55.932;-3.238;2023-04-19T09:45:54;10;10;
79689;PMS5003;69156;55.932;-3.238;2023-04-19T09:48:19;8;8;
79689;PMS5003;69156;55.932;-3.238;2023-04-19T09:50:52;9;8;
79689;PMS5003;69156;55.932;-3.238;2023-04-19T09:53:10;9;9;
79689;PMS5003;69156;55.932;-3.238;2023-04-19T09:55:35;9;9;
79689;PMS5003;69156;55.932;-3.238;2023-04-19T09:58:00;9;8;
79689;PMS5003;69156;55.932;-3.238;2023-04-19T10:00:25;10;10;
79689;PMS5003;69156;55.932;-3.238;2023-04-19T10:02:51;8;8;
79689;PMS5003;69156;55.932;-3.238;2023-04-19T10:05:16;11;10;
79689;PMS5003;69156;55.932;-3.238;2023-04-19T10:07:41;10;10;
79689;PMS5003;69156;55.932;-3.238;2023-04-19T10:10:07;10;10;
79689;PMS5003;69156;55.932;-3.238;2023-04-19T10:12:32;11;11;
79689;PMS5003;69156;55.932;-3.238;2023-04-19T10:14:58;10;8;
79689;PMS5003;69156;55.932;-3.238;2023-04-19T10:17:23;8;7;
79689;PMS5003;69156;55.932;-3.238;2023-04-19T10:19:49;7;7;
79689;PMS5003;69156;55.932;-3.238;2023-04-19T10:22:13;9;9;
79689;PMS5003;69156;55.932;-3.238;2023-04-19T10:24:39;10;9;
79689;PMS5003;69156;55.932;-3.238;2023-04-19T10:27:07;10;10;
79689;PMS5003;69156;55.932;-3.238;2023-04-19T10:30:02;8;8;
79689;PMS5003;69156;55.932;-3.238;2023-04-19T10:31:55;9;9;
79689;PMS5003;69156;55.932;-3.238;2023-04-19T10:34:35;8;7;
79689;PMS5003;69156;55.932;-3.238;2023-04-19T10:36:47;6;6;
79689;PMS5003;69156;55.932;-3.238;2023-04-19T10:39:37;10;9;
79689;PMS5003;69156;55.932;-3.238;2023-04-19T10:41:55;8;7;
79689;PMS5003;69156;55.932;-3.238;2023-04-19T10:44:11;10;9;
79689;PMS5003;69156;55.932;-3.238;2023-04-19T10:46:36;9;8;
79689;PMS5003;69156;55.932;-3.238;2023-04-19T10:48:56;9;8;
79689;PMS5003;69156;55.932;-3.238;2023-04-19T10:51:21;8;8;
79689;PMS5003;69156;55.932;-3.238;2023-04-19T10:53:46;8;8;
79689;PMS5003;69156;55.932;-3.238;2023-04-19T10:56:11;8;8;
79689;PMS5003;69156;55.932;-3.238;2023-04-19T10:59:10;8;7;
79689;PMS5003;69156;55.932;-3.238;2023-04-19T11:01:30;9;8;
79689;PMS5003;69156;55.932;-3.238;2023-04-19T11:03:59;7;7;
79689;PMS5003;69156;55.932;-3.238;2023-04-19T11:06:24;9;9;
79689;PMS5003;69156;55.932;-3.238;2023-04-19T11:08:21;10;8;
79689;PMS5003;69156;55.932;-3.238;2023-04-19T11:10:43;10;9;
79689;PMS5003;69156;55.932;-3.238;2023-04-19T11:13:09;8;8;
79689;PMS5003;69156;55.932;-3.238;2023-04-19T11:15:39;11;10;
79689;PMS5003;69156;55.932;-3.238;2023-04-19T11:18:00;10;10;
79689;PMS5003;69156;55.932;-3.238;2023-04-19T11:20:26;9;8;
79689;PMS5003;69156;55.932;-3.238;2023-04-19T11:22:51;9;8;
79689;PMS5003;69156;55.932;-3.238;2023-04-19T11:25:17;8;8;
79689;PMS5003;69156;55.932;-3.238;2023-04-19T11:27:42;8;8;
79689;PMS5003;69156;55.932;-3.238;2023-04-19T11:30:08;10;9;
79689;PMS5003;69156;55.932;-3.238;2023-04-19T11:32:32;9;9;
79689;PMS5003;69156;55.932;-3.238;2023-04-19T11:35:02;10;10;
79689;PMS5003;69156;55.932;-3.238;2023-04-19T11:37:23;7;7;
79689;PMS5003;69156;55.932;-3.238;2023-04-19T11:39:49;8;8;
79689;PMS5003;69156;55.932;-3.238;2023-04-19T11:42:16;9;9;
79689;PMS5003;69156;55.932;-3.238;2023-04-19T11:44:39;10;10;
79689;PMS5003;69156;55.932;-3.238;2023-04-19T11:47:05;10;9;
79689;PMS5003;69156;55.932;-3.238;2023-04-19T11:49:31;12;12;
79689;PMS5003;69156;55.932;-3.238;2023-04-19T11:51:57;10;9;
79689;PMS5003;69156;55.932;-3.238;2023-04-19T11:54:22;9;9;
79689;PMS5003;69156;55.932;-3.238;2023-04-19T11:57:03;9;9;
79689;PMS5003;69156;55.932;-3.238;2023-04-19T11:59:13;8;8;
79689;PMS5003;69156;55.932;-3.238;2023-04-19T12:01:38;10;10;
79689;PMS5003;69156;55.932;-3.238;2023-04-19T12:04:04;10;10;
79689;PMS5003;69156;55.932;-3.238;2023-04-19T12:06:30;11;11;
79689;PMS5003;69156;55.932;-3.238;2023-04-19T12:08:55;11;10;
79689;PMS5003;69156;55.932;-3.238;2023-04-19T12:11:22;10;10;
79689;PMS5003;69156;55.932;-3.238;2023-04-19T12:13:47;11;11;
79689;PMS5003;69156;55.932;-3.238;2023-04-19T12:16:12;9;9;
79689;PMS5003;69156;55.932;-3.238;2023-04-19T12:18:42;11;11;
79689;PMS5003;69156;55.932;-3.238;2023-04-19T12:21:04;13;12;
79689;PMS5003;69156;55.932;-3.238;2023-04-19T12:23:29;10;9;
79689;PMS5003;69156;55.932;-3.238;2023-04-19T12:25:55;9;9;
79689;PMS5003;69156;55.932;-3.238;2023-04-19T12:28:21;11;11;
79689;PMS5003;69156;55.932;-3.238;2023-04-19T12:30:45;9;9;
79689;PMS5003;69156;55.932;-3.238;2023-04-19T12:33:11;11;10;
79689;PMS5003;69156;55.932;-3.238;2023-04-19T12:35:36;11;11;
79689;PMS5003;69156;55.932;-3.238;2023-04-19T12:38:02;9;9;
79689;PMS5003;69156;55.932;-3.238;2023-04-19T12:40:29;11;11;
79689;PMS5003;69156;55.932;-3.238;2023-04-19T12:42:54;11;10;
79689;PMS5003;69156;55.932;-3.238;2023-04-19T12:45:19;11;11;
79689;PMS5003;69156;55.932;-3.238;2023-04-19T12:47:45;8;8;
79689;PMS5003;69156;55.932;-3.238;2023-04-19T12:50:10;10;10;
79689;PMS5003;69156;55.932;-3.238;2023-04-19T12:52:36;10;10;
79689;PMS5003;69156;55.932;-3.238;2023-04-19T12:55:01;10;10;
79689;PMS5003;69156;55.932;-3.238;2023-04-19T12:57:27;10;10;
79689;PMS5003;69156;55.932;-3.238;2023-04-19T12:59:53;10;9;
79689;PMS5003;69156;55.932;-3.238;2023-04-19T13:02:18;11;10;
79689;PMS5003;69156;55.932;-3.238;2023-04-19T13:04:43;9;9;
79689;PMS5003;69156;55.932;-3.238;2023-04-19T13:07:09;12;11;
79689;PMS5003;69156;55.932;-3.238;2023-04-19T13:09:34;10;10;
79689;PMS5003;69156;55.932;-3.238;2023-04-19T13:11:59;8;8;
79689;PMS5003;69156;55.932;-3.238;2023-04-19T13:14:26;7;7;
79689;PMS5003;69156;55.932;-3.238;2023-04-19T13:16:50;11;10;
79689;PMS5003;69156;55.932;-3.238;2023-04-19T13:19:16;11;10;
79689;PMS5003;69156;55.932;-3.238;2023-04-19T13:21:41;10;9;
79689;PMS5003;69156;55.932;-3.238;2023-04-19T13:24:07;9;8;
79689;PMS5003;69156;55.932;-3.238;2023-04-19T13:26:32;9;9;
79689;PMS5003;69156;55.932;-3.238;2023-04-19T13:28:57;9;9;
79689;PMS5003;69156;55.932;-3.238;2023-04-19T13:31:22;8;8;
79689;PMS5003;69156;55.932;-3.238;2023-04-19T13:33:48;6;6;
79689;PMS5003;69156;55.932;-3.238;2023-04-19T13:36:13;8;8;
79689;PMS5003;69156;55.932;-3.238;2023-04-19T13:38:38;10;9;
79689;PMS5003;69156;55.932;-3.238;2023-04-19T13:41:04;9;9;
79689;PMS5003;69156;55.932;-3.238;2023-04-19T13:43:31;9;8;
79689;PMS5003;69156;55.932;-3.238;2023-04-19T13:45:56;8;8;
79689;PMS5003;69156;55.932;-3.238;2023-04-19T13:48:21;10;9;
79689;PMS5003;69156;55.932;-3.238;2023-04-19T13:50:47;8;8;
79689;PMS5003;69156;55.932;-3.238;2023-04-19T13:53:12;6;6;
79689;PMS5003;69156;55.932;-3.238;2023-04-19T13:55:38;9;9;
79689;PMS5003;69156;55.932;-3.238;2023-04-19T13:58:03;7;7;
79689;PMS5003;69156;55.932;-3.238;2023-04-19T14:00:29;8;8;
79689;PMS5003;69156;55.932;-3.238;2023-04-19T14:02:54;9;9;
79689;PMS5003;69156;55.932;-3.238;2023-04-19T14:05:20;7;7;
79689;PMS5003;69156;55.932;-3.238;2023-04-19T14:07:46;10;10;
79689;PMS5003;69156;55.932;-3.238;2023-04-19T14:10:11;6;6;
79689;PMS5003;69156;55.932;-3.238;2023-04-19T14:12:36;9;7;
79689;PMS5003;69156;55.932;-3.238;2023-04-19T14:15:02;6;6;
79689;PMS5003;69156;55.932;-3.238;2023-04-19T14:17:27;8;7;
79689;PMS5003;69156;55.932;-3.238;2023-04-19T14:19:52;6;6;
79689;PMS5003;69156;55.932;-3.238;2023-04-19T14:19:54;6;6;
79689;PMS5003;69156;55.932;-3.238;2023-04-19T14:22:19;8;7;
79689;PMS5003;69156;55.932;-3.238;2023-04-19T14:24:45;8;8;
79689;PMS5003;69156;55.932;-3.238;2023-04-19T14:27:10;10;9;
79689;PMS5003;69156;55.932;-3.238;2023-04-19T14:29:36;9;8;
79689;PMS5003;69156;55.932;-3.238;2023-04-19T14:32:00;7;7;
79689;PMS5003;69156;55.932;-3.238;2023-04-19T14:34:25;8;8;
79689;PMS5003;69156;55.932;-3.238;2023-04-19T14:36:51;8;8;
79689;PMS5003;69156;55.932;-3.238;2023-04-19T14:39:17;7;7;
79689;PMS5003;69156;55.932;-3.238;2023-04-19T14:41:42;11;9;
79689;PMS5003;69156;55.932;-3.238;2023-04-19T14:44:07;8;7;
79689;PMS5003;69156;55.932;-3.238;2023-04-19T14:46:34;8;8;
79689;PMS5003;69156;55.932;-3.238;2023-04-19T14:49:00;8;8;
79689;PMS5003;69156;55.932;-3.238;2023-04-19T14:51:25;7;7;
79689;PMS5003;69156;55.932;-3.238;2023-04-19T14:53:50;9;8;
79689;PMS5003;69156;55.932;-3.238;2023-04-19T14:56:15;8;8;
79689;PMS5003;69156;55.932;-3.238;2023-04-19T14:58:40;7;7;
79689;PMS5003;69156;55.932;-3.238;2023-04-19T15:01:09;7;7;
79689;PMS5003;69156;55.932;-3.238;2023-04-19T15:03:31;7;6;
79689;PMS5003;69156;55.932;-3.238;2023-04-19T15:05:56;8;8;
79689;PMS5003;69156;55.932;-3.238;2023-04-19T15:08:22;8;7;
79689;PMS5003;69156;55.932;-3.238;2023-04-19T15:10:48;6;6;
79689;PMS5003;69156;55.932;-3.238;2023-04-19T15:13:13;6;6;
79689;PMS5003;69156;55.932;-3.238;2023-04-19T15:15:38;8;8;
79689;PMS5003;69156;55.932;-3.238;2023-04-19T15:18:04;8;8;
79689;PMS5003;69156;55.932;-3.238;2023-04-19T15:20:29;9;7;
79689;PMS5003;69156;55.932;-3.238;2023-04-19T15:22:54;7;7;
79689;PMS5003;69156;55.932;-3.238;2023-04-19T15:25:19;7;6;
79689;PMS5003;69156;55.932;-3.238;2023-04-19T15:27:45;7;7;
79689;PMS5003;69156;55.932;-3.238;2023-04-19T15:30:11;9;9;
79689;PMS5003;69156;55.932;-3.238;2023-04-19T15:32:36;7;7;
79689;PMS5003;69156;55.932;-3.238;2023-04-19T15:35:02;7;7;
79689;PMS5003;69156;55.932;-3.238;2023-04-19T15:37:26;7;6;
79689;PMS5003;69156;55.932;-3.238;2023-04-19T15:39:52;5;5;
79689;PMS5003;69156;55.932;-3.238;2023-04-19T15:42:17;8;7;
79689;PMS5003;69156;55.932;-3.238;2023-04-19T15:44:43;4;4;
79689;PMS5003;69156;55.932;-3.238;2023-04-19T15:47:08;7;6;
79689;PMS5003;69156;55.932;-3.238;2023-04-19T15:49:33;5;5;
79689;PMS5003;69156;55.932;-3.238;2023-04-19T15:51:58;5;5;
79689;PMS5003;69156;55.932;-3.238;2023-04-19T15:54:24;5;5;
79689;PMS5003;69156;55.932;-3.238;2023-04-19T15:56:49;7;7;
79689;PMS5003;69156;55.932;-3.238;2023-04-19T15:59:14;6;6;